SBBE/BEL METAR and TAF weather

Enter ICAO airport designator
Station Type Date Time Source
SBBE METAR 2020/09/20 10:00 UTC NOAA

SBBE 201000Z 08006KT CAVOK 25/23 Q1012


Station Type Date Time Source
SBBE Decoded METAR 2020/09/20 10:00 UTC NOAA

Belem Aeroporto , Brazil (SBBE) 01-23S 048-29W 16M
Sep 20, 2020 - 06:00 AM EDT / 2020.09.20 1000 UTC
Wind: from the E (080 degrees) at 7 MPH (6 KT):0
Visibility: greater than 7 mile(s):0
Temperature: 77 F (25 C)
Dew Point: 73 F (23 C)
Relative Humidity: 88%
Pressure (altimeter): 29.88 in. Hg (1012 hPa)
ob: SBBE 201000Z 08006KT CAVOK 25/23 Q1012
cycle: 10

Station Type Date Time Source
SBBE TAF 2020/09/20 12:58 UTC NOAA

TAF SBBE 200900Z 2012/2112 09010KT 8000 FEW030 TX32/2016Z TN25/2109Z
BECMG 2015/2017 36010KT SCT030 FEW035TCU
BECMG 2022/2100 05007KT FEW030
BECMG 2109/2111 09010KT SCT020
RMK PHC

Example: see airport list